createdAt,value
2022-08-05T00:02:11.536Z,101652.06
2022-08-05T00:04:40.179Z,101656.06
2022-08-05T00:07:27.075Z,101662.84
2022-08-05T00:09:57.322Z,101661.31
2022-08-05T00:12:26.338Z,101666.47
2022-08-05T00:14:54.076Z,101670.75
2022-08-05T00:17:21.927Z,101662.97
2022-08-05T00:20:02.026Z,101667.28
2022-08-05T00:22:31.964Z,101670.22
2022-08-05T00:24:59.726Z,101671.19
2022-08-05T00:27:36.280Z,101674.16
2022-08-05T00:30:05.435Z,101678.28
2022-08-05T00:32:39.241Z,101674.44
2022-08-05T00:35:09.518Z,101683.53
2022-08-05T00:37:53.103Z,101675.22
2022-08-05T00:40:26.682Z,101674.53
2022-08-05T00:42:58.262Z,101674.34
2022-08-05T00:45:39.027Z,101676.47
2022-08-05T00:48:12.202Z,101674.09
2022-08-05T00:50:41.886Z,101662.66
2022-08-05T00:54:00.440Z,101665.28
2022-08-05T00:55:59.139Z,101660.06
2022-08-05T00:58:27.595Z,101667.19
2022-08-05T01:00:56.683Z,101664.97
2022-08-05T01:03:31.105Z,101672.09
2022-08-05T01:06:03.810Z,101682.34
2022-08-05T01:08:43.426Z,101681.00
2022-08-05T01:11:22.389Z,101686.41
2022-08-05T01:14:01.232Z,101682.25
2022-08-05T01:16:39.239Z,101688.53
2022-08-05T01:19:16.931Z,101694.47
2022-08-05T01:22:23.977Z,101682.06
2022-08-05T01:25:06.791Z,101681.53
2022-08-05T01:27:55.450Z,101681.53
2022-08-05T01:30:34.645Z,101681.06
2022-08-05T01:33:08.260Z,101675.06
2022-08-05T01:35:50.836Z,101689.34
2022-08-05T01:38:27.496Z,101699.47
2022-08-05T01:41:01.330Z,101688.72
2022-08-05T01:43:33.474Z,101690.06
2022-08-05T01:46:07.304Z,101684.97
2022-08-05T01:48:52.717Z,101697.91
2022-08-05T01:51:21.626Z,101694.44
2022-08-05T01:53:57.401Z,101688.19
2022-08-05T01:58:11.725Z,101688.19
2022-08-05T01:59:24.071Z,101688.19
2022-08-05T02:01:56.336Z,101678.06
2022-08-05T02:04:29.054Z,101690.16
2022-08-05T02:06:58.946Z,101689.31
2022-08-05T02:09:28.136Z,101689.00
2022-08-05T02:12:06.664Z,101694.28
2022-08-05T02:14:44.762Z,101697.13
2022-08-05T02:18:27.956Z,101694.66
2022-08-05T02:20:20.665Z,101701.13
2022-08-05T02:22:55.162Z,101703.09
2022-08-05T02:25:26.218Z,101702.25
2022-08-05T02:28:04.338Z,101698.28
2022-08-05T02:30:54.306Z,101695.47
2022-08-05T02:33:24.509Z,101691.00
2022-08-05T02:36:17.784Z,101698.28
2022-08-05T02:38:53.324Z,101687.50
2022-08-05T02:41:23.236Z,101684.38
2022-08-05T02:44:02.801Z,101686.03
2022-08-05T02:46:53.447Z,101688.03
2022-08-05T02:49:26.740Z,101681.56
2022-08-05T02:52:02.945Z,101689.72
2022-08-05T02:54:35.844Z,101693.38
2022-08-05T02:58:08.524Z,101690.56
2022-08-05T02:59:56.278Z,101682.38
2022-08-05T03:02:29.778Z,101682.94
2022-08-05T03:04:59.288Z,101684.09
2022-08-05T03:08:00.085Z,101676.75
2022-08-05T03:10:24.538Z,101675.41
2022-08-05T03:12:54.394Z,101672.94
2022-08-05T03:15:24.175Z,101669.59
2022-08-05T03:17:55.499Z,101663.97
2022-08-05T03:20:24.924Z,101660.13
2022-08-05T03:22:57.082Z,101667.22
2022-08-05T03:25:33.788Z,101675.16
2022-08-05T03:28:18.893Z,101670.16
2022-08-05T03:30:48.709Z,101673.28
2022-08-05T03:33:18.501Z,101677.25
2022-08-05T03:35:47.333Z,101684.88
2022-08-05T03:38:16.017Z,101682.38
2022-08-05T03:40:48.666Z,101683.53
2022-08-05T03:44:09.570Z,101676.56
2022-08-05T03:46:08.244Z,101673.56
2022-08-05T03:48:37.602Z,101676.38
2022-08-05T03:52:37.066Z,101672.72
2022-08-05T03:55:50.630Z,101677.00
2022-08-05T03:57:00.074Z,101673.66
2022-08-05T03:59:46.865Z,101679.81
2022-08-05T04:02:38.310Z,101686.91
2022-08-05T04:05:11.025Z,101691.72
2022-08-05T04:07:57.362Z,101694.84
2022-08-05T04:10:27.657Z,101694.84
2022-08-05T04:12:56.376Z,101697.34
2022-08-05T04:15:27.752Z,101703.81
2022-08-05T04:18:03.172Z,101700.69
2022-08-05T04:20:32.432Z,101694.72
2022-08-05T04:23:01.394Z,101691.59
2022-08-05T04:25:56.456Z,101703.06
2022-08-05T04:28:17.274Z,101711.19
2022-08-05T04:30:45.609Z,101711.69
2022-08-05T04:33:14.005Z,101711.91
2022-08-05T04:36:16.193Z,101711.56
2022-08-05T04:38:39.506Z,101704.78
2022-08-05T04:41:09.515Z,101713.75
2022-08-05T04:43:40.642Z,101712.94
2022-08-05T04:46:28.158Z,101713.25
2022-08-05T04:48:58.840Z,101705.63
2022-08-05T04:51:30.373Z,101712.09
2022-08-05T04:53:58.569Z,101700.00
2022-08-05T04:56:34.673Z,101709.78
2022-08-05T04:59:21.681Z,101705.84
2022-08-05T05:02:35.291Z,101706.88
2022-08-05T05:04:43.996Z,101707.91
2022-08-05T05:07:17.181Z,101715.59
2022-08-05T05:09:45.190Z,101721.63
2022-08-05T05:12:13.243Z,101722.00
2022-08-05T05:14:50.726Z,101725.22
2022-08-05T05:17:23.776Z,101732.09
2022-08-05T05:19:54.447Z,101725.66
2022-08-05T05:22:26.133Z,101732.50
2022-08-05T05:24:57.470Z,101731.41
2022-08-05T05:27:45.740Z,101732.63
2022-08-05T05:30:29.508Z,101735.50
2022-08-05T05:33:01.249Z,101732.69
2022-08-05T05:35:39.551Z,101728.28
2022-08-05T05:38:13.533Z,101724.97
2022-08-05T05:40:50.021Z,101723.69
2022-08-05T05:43:27.545Z,101722.41
2022-08-05T05:46:13.678Z,101714.63
2022-08-05T05:48:44.526Z,101725.41
2022-08-05T05:51:15.691Z,101728.09
2022-08-05T05:53:54.310Z,101718.97
2022-08-05T05:56:32.765Z,101724.63
2022-08-05T05:59:03.150Z,101720.81
2022-08-05T06:01:37.701Z,101724.31
2022-08-05T06:04:07.955Z,101727.81
2022-08-05T06:06:36.016Z,101715.03
2022-08-05T06:09:07.592Z,101705.41
2022-08-05T06:11:39.328Z,101718.69
2022-08-05T06:14:07.378Z,101718.50
2022-08-05T06:16:37.210Z,101716.53
2022-08-05T06:19:07.925Z,101711.69
2022-08-05T06:21:38.336Z,101709.72
2022-08-05T06:24:11.774Z,101733.97
2022-08-05T06:26:40.137Z,101733.00
2022-08-05T06:29:25.349Z,101740.97
2022-08-05T06:32:17.243Z,101737.34
2022-08-05T06:34:56.057Z,101743.84
2022-08-05T06:37:58.026Z,101744.56
2022-08-05T06:40:18.184Z,101747.50
2022-08-05T06:42:51.589Z,101753.94
2022-08-05T06:45:21.454Z,101746.72
2022-08-05T06:48:35.939Z,101755.06
2022-08-05T06:50:56.422Z,101754.06
2022-08-05T06:53:28.230Z,101758.59
2022-08-05T06:55:58.298Z,101757.94
2022-08-05T06:58:35.237Z,101761.72
2022-08-05T07:01:06.331Z,101768.00
2022-08-05T07:03:35.384Z,101774.97
2022-08-05T07:06:05.831Z,101781.16
2022-08-05T07:08:42.088Z,101776.66
2022-08-05T07:11:15.594Z,101773.19
2022-08-05T07:14:01.225Z,101779.59
2022-08-05T07:18:02.423Z,101793.75
2022-08-05T07:22:28.291Z,101794.81
2022-08-05T07:24:58.450Z,101791.44
2022-08-05T07:27:58.421Z,101803.69
2022-08-05T07:30:25.508Z,101804.41
2022-08-05T07:32:58.402Z,101802.59
2022-08-05T07:36:05.387Z,101801.94
2022-08-05T07:38:32.979Z,101797.53
2022-08-05T07:41:16.635Z,101792.31
2022-08-05T07:43:52.030Z,101798.16
2022-08-05T07:46:25.304Z,101800.69
2022-08-05T07:49:02.124Z,101796.13
2022-08-05T07:51:36.798Z,101798.19
2022-08-05T07:54:06.285Z,101797.75
2022-08-05T07:57:00.667Z,101793.63
2022-08-05T07:59:39.117Z,101811.31
2022-08-05T08:02:10.681Z,101811.72
2022-08-05T08:04:44.772Z,101817.41
2022-08-05T08:07:13.292Z,101828.03
2022-08-05T08:09:41.068Z,101825.03
2022-08-05T08:12:30.561Z,101827.34
2022-08-05T08:15:02.538Z,101836.69
2022-08-05T08:17:31.542Z,101844.53
2022-08-05T08:20:23.478Z,101841.81
2022-08-05T08:22:52.274Z,101841.56
2022-08-05T08:25:27.126Z,101842.53
2022-08-05T08:28:18.338Z,101847.16
2022-08-05T08:30:49.633Z,101844.28
2022-08-05T08:33:19.776Z,101835.25
2022-08-05T08:35:53.112Z,101850.41
2022-08-05T08:38:35.706Z,101852.84
2022-08-05T08:41:08.490Z,101857.34
2022-08-05T08:45:24.013Z,101862.72
2022-08-05T08:46:30.470Z,101854.19
2022-08-05T08:50:04.033Z,101866.53
2022-08-05T08:52:05.698Z,101863.97
2022-08-05T08:54:38.115Z,101865.97
2022-08-05T08:57:13.485Z,101874.50
2022-08-05T08:59:47.159Z,101862.13
2022-08-05T09:02:20.943Z,101866.66
2022-08-05T09:05:16.971Z,101864.06
2022-08-05T09:07:56.906Z,101873.53
2022-08-05T09:10:27.734Z,101879.03
2022-08-05T09:13:04.528Z,101875.88
2022-08-05T09:15:37.090Z,101872.25
2022-08-05T09:18:09.284Z,101878.84
2022-08-05T09:20:38.009Z,101882.97
2022-08-05T09:23:10.536Z,101883.75
2022-08-05T09:26:03.853Z,101882.78
2022-08-05T09:28:35.116Z,101890.72
2022-08-05T09:31:18.220Z,101893.19
2022-08-05T09:33:56.573Z,101888.66
2022-08-05T09:36:27.638Z,101891.97
2022-08-05T09:39:03.082Z,101895.31
2022-08-05T09:41:32.747Z,101896.63
2022-08-05T09:44:01.276Z,101890.47
2022-08-05T09:46:31.062Z,101890.94
2022-08-05T09:49:06.719Z,101896.41
2022-08-05T09:51:38.106Z,101890.75
2022-08-05T09:54:09.592Z,101904.97
2022-08-05T09:56:39.685Z,101896.97
2022-08-05T09:59:09.581Z,101899.97
2022-08-05T10:01:45.835Z,101908.41
2022-08-05T10:04:17.506Z,101912.41
2022-08-05T10:06:59.488Z,101909.66
2022-08-05T10:09:30.047Z,101914.06
2022-08-05T10:12:18.722Z,101910.28
2022-08-05T10:15:16.903Z,101912.09
2022-08-05T10:17:47.534Z,101916.19
2022-08-05T10:20:26.883Z,101917.00
2022-08-05T10:22:55.739Z,101926.03
2022-08-05T10:25:26.467Z,101932.59
2022-08-05T10:28:13.527Z,101934.34
2022-08-05T10:32:53.120Z,101936.38
2022-08-05T10:33:35.393Z,101940.19
2022-08-05T10:36:06.838Z,101936.47
2022-08-05T10:38:38.149Z,101944.38
2022-08-05T10:41:23.568Z,101954.50
2022-08-05T10:43:56.584Z,101956.38
2022-08-05T10:46:45.429Z,101962.66
2022-08-05T10:49:16.449Z,101960.41
2022-08-05T10:51:57.738Z,101972.13
2022-08-05T10:54:56.481Z,101975.38
2022-08-05T10:57:31.717Z,101970.66
2022-08-05T11:00:19.593Z,101974.28
2022-08-05T11:03:24.550Z,101981.59
2022-08-05T11:06:15.127Z,101979.13
2022-08-05T11:09:18.578Z,101979.88
2022-08-05T11:11:54.092Z,101991.66
2022-08-05T11:14:57.478Z,101993.34
2022-08-05T11:18:07.685Z,102003.16
2022-08-05T11:20:45.035Z,102005.66
2022-08-05T11:24:05.470Z,102010.50
2022-08-05T11:26:28.014Z,102013.53
2022-08-05T11:28:58.677Z,102017.16
2022-08-05T11:31:57.972Z,102017.88
2022-08-05T11:34:37.233Z,102022.28
2022-08-05T11:37:06.227Z,102032.13
2022-08-05T11:40:00.661Z,102030.16
2022-08-05T11:42:38.121Z,102037.94
2022-08-05T11:45:14.298Z,102037.94
2022-08-05T11:47:54.461Z,102038.66
2022-08-05T11:50:22.524Z,102044.00
2022-08-05T11:52:54.416Z,102035.78
2022-08-05T11:55:32.082Z,102051.03
2022-08-05T11:58:09.388Z,102048.63
2022-08-05T12:00:41.210Z,102051.31
2022-08-05T12:03:28.764Z,102052.59
2022-08-05T12:06:02.680Z,102051.88
2022-08-05T12:08:31.673Z,102048.25
2022-08-05T12:11:05.567Z,102058.75
2022-08-05T12:13:49.706Z,102063.91
2022-08-05T12:16:27.040Z,102061.28
2022-08-05T12:18:55.595Z,102076.28
2022-08-05T12:21:26.879Z,102061.28
2022-08-05T12:24:05.208Z,102067.25
2022-08-05T12:26:36.521Z,102075.44
2022-08-05T12:29:09.499Z,102077.97
2022-08-05T12:31:45.995Z,102077.88
2022-08-05T12:34:21.467Z,102069.59
2022-08-05T12:36:54.224Z,102071.78
2022-08-05T12:39:23.634Z,102070.03
2022-08-05T12:42:00.217Z,102075.13
2022-08-05T12:44:34.084Z,102081.63
2022-08-05T12:47:02.828Z,102085.06
2022-08-05T12:50:04.720Z,102083.25
2022-08-05T12:52:33.952Z,102094.06
2022-08-05T12:55:17.879Z,102099.41
2022-08-05T12:58:50.750Z,102098.19
2022-08-05T13:02:03.021Z,102095.69
2022-08-05T13:03:32.988Z,102110.16
2022-08-05T13:06:01.296Z,102104.75
2022-08-05T13:08:30.294Z,102102.03
2022-08-05T13:11:01.322Z,102096.97
2022-08-05T13:14:07.348Z,102097.41
2022-08-05T13:16:20.265Z,102103.59
2022-08-05T13:18:52.296Z,102107.00
2022-08-05T13:21:23.247Z,102109.03
2022-08-05T13:23:56.477Z,102110.78
2022-08-05T13:26:30.109Z,102116.59
2022-08-05T13:28:59.103Z,102117.09
2022-08-05T13:32:03.296Z,102120.13
2022-08-05T13:34:23.365Z,102117.38
2022-08-05T13:36:53.147Z,102122.69
2022-08-05T13:39:24.337Z,102122.81
2022-08-05T13:42:14.670Z,102132.13
2022-08-05T13:44:46.313Z,102135.28
2022-08-05T13:47:35.931Z,102132.34
2022-08-05T13:50:07.394Z,102133.03
2022-08-05T13:52:38.066Z,102146.38
2022-08-05T13:55:07.649Z,102149.19
2022-08-05T13:57:51.441Z,102150.47
2022-08-05T14:00:26.739Z,102142.63
2022-08-05T14:02:57.845Z,102146.84
2022-08-05T14:05:48.552Z,102156.91
2022-08-05T14:08:20.285Z,102156.25
2022-08-05T14:10:49.781Z,102153.31
2022-08-05T14:13:18.811Z,102153.59
2022-08-05T14:16:06.890Z,102164.31
2022-08-05T14:18:38.507Z,102161.94
2022-08-05T14:22:07.011Z,102167.81
2022-08-05T14:23:54.374Z,102159.19
2022-08-05T14:26:35.495Z,102163.34
2022-08-05T14:29:10.035Z,102170.22
2022-08-05T14:32:03.917Z,102165.53
2022-08-05T14:34:35.412Z,102166.09
2022-08-05T14:37:03.652Z,102165.38
2022-08-05T14:39:49.401Z,102160.84
2022-08-05T14:42:23.254Z,102160.91
2022-08-05T14:44:52.861Z,102174.38
2022-08-05T14:48:02.948Z,102179.66
2022-08-05T14:50:17.380Z,102173.53
2022-08-05T14:52:56.758Z,102178.78
2022-08-05T14:55:28.738Z,102182.25
2022-08-05T14:58:12.025Z,102184.66
2022-08-05T15:00:59.252Z,102184.66
2022-08-05T15:03:33.110Z,102191.09
2022-08-05T15:06:08.354Z,102193.00
2022-08-05T15:08:59.118Z,102203.66
2022-08-05T15:11:53.163Z,102201.94
2022-08-05T15:14:34.436Z,102198.75
2022-08-05T15:17:14.535Z,102212.91
2022-08-05T15:19:55.062Z,102211.41
2022-08-05T15:22:27.454Z,102210.94
2022-08-05T15:24:56.333Z,102212.47
2022-08-05T15:27:25.441Z,102210.81
2022-08-05T15:29:54.218Z,102217.94
2022-08-05T15:32:28.719Z,102216.31
2022-08-05T15:34:57.337Z,102217.38
2022-08-05T15:38:34.337Z,102212.16
2022-08-05T15:41:01.107Z,102220.44
2022-08-05T15:43:10.820Z,102218.56
2022-08-05T15:45:47.753Z,102214.63
2022-08-05T15:48:28.307Z,102218.78
2022-08-05T15:50:56.350Z,102226.03
2022-08-05T15:53:28.294Z,102221.88
2022-08-05T15:56:13.040Z,102228.13
2022-08-05T15:58:42.189Z,102220.50
2022-08-05T16:01:16.142Z,102230.00
2022-08-05T16:03:50.235Z,102235.19
2022-08-05T16:06:19.843Z,102237.16
2022-08-05T16:08:55.228Z,102238.69
2022-08-05T16:11:42.352Z,102242.81
2022-08-05T16:14:17.529Z,102246.44
2022-08-05T16:16:46.506Z,102239.06
2022-08-05T16:19:19.250Z,102241.22
2022-08-05T16:22:03.357Z,102244.06
2022-08-05T16:24:40.259Z,102239.56
2022-08-05T16:27:10.210Z,102245.81
2022-08-05T16:29:49.988Z,102255.22
2022-08-05T16:32:28.399Z,102252.94
2022-08-05T16:34:57.480Z,102246.84
2022-08-05T16:38:02.565Z,102253.06
2022-08-05T16:40:26.701Z,102250.66
2022-08-05T16:43:00.103Z,102254.88
2022-08-05T16:46:06.566Z,102261.94
2022-08-05T16:48:25.283Z,102259.31
2022-08-05T16:50:59.568Z,102266.19
2022-08-05T16:53:32.238Z,102266.50
2022-08-05T16:56:02.074Z,102267.22
2022-08-05T16:58:29.820Z,102274.28
2022-08-05T17:00:57.777Z,102270.78
2022-08-05T17:03:27.022Z,102274.31
2022-08-05T17:05:59.525Z,102271.31
2022-08-05T17:08:36.778Z,102276.72
2022-08-05T17:11:17.415Z,102278.25
2022-08-05T17:13:45.463Z,102277.25
2022-08-05T17:16:32.956Z,102272.28
2022-08-05T17:19:02.001Z,102278.13
2022-08-05T17:21:36.157Z,102277.13
2022-08-05T17:24:18.357Z,102278.16
2022-08-05T17:26:54.128Z,102284.72
2022-08-05T17:29:33.152Z,102272.84
2022-08-05T17:32:02.110Z,102272.19
2022-08-05T17:34:32.186Z,102278.53
2022-08-05T17:37:02.611Z,102274.72
2022-08-05T17:39:33.912Z,102281.91
2022-08-05T17:42:18.621Z,102281.41
2022-08-05T17:44:51.111Z,102286.56
2022-08-05T17:47:22.584Z,102285.06
2022-08-05T17:49:59.844Z,102282.69
2022-08-05T17:52:32.575Z,102293.34
2022-08-05T17:55:03.110Z,102291.84
2022-08-05T17:57:34.743Z,102295.16
2022-08-05T18:00:06.489Z,102290.31
2022-08-05T18:02:35.089Z,102293.75
2022-08-05T18:05:07.934Z,102294.06
2022-08-05T18:07:41.711Z,102294.88
2022-08-05T18:10:11.393Z,102300.50
2022-08-05T18:12:42.020Z,102305.81
2022-08-05T18:15:10.774Z,102301.25
2022-08-05T18:17:59.553Z,102311.06
2022-08-05T18:20:29.445Z,102315.09
2022-08-05T18:23:00.739Z,102320.50
2022-08-05T18:25:39.608Z,102327.09
2022-08-05T18:28:17.453Z,102331.50
2022-08-05T18:30:45.835Z,102334.59
2022-08-05T18:33:22.919Z,102346.66
2022-08-05T18:36:03.249Z,102346.25
2022-08-05T18:38:35.867Z,102341.38
2022-08-05T18:41:57.177Z,102339.81
2022-08-05T18:43:56.538Z,102349.66
2022-08-05T18:46:26.249Z,102349.56
2022-08-05T18:48:56.883Z,102351.13
2022-08-05T18:52:06.556Z,102347.91
2022-08-05T18:54:31.918Z,102356.91
2022-08-05T18:57:01.318Z,102358.72
2022-08-05T18:59:42.666Z,102355.16
2022-08-05T19:02:27.016Z,102362.66
2022-08-05T19:05:02.560Z,102365.63
2022-08-05T19:07:46.945Z,102374.19
2022-08-05T19:10:14.853Z,102368.00
2022-08-05T19:12:43.130Z,102364.94
2022-08-05T19:15:50.671Z,102373.53
2022-08-05T19:18:10.230Z,102369.97
2022-08-05T19:20:48.986Z,102373.09
2022-08-05T19:24:03.271Z,102373.72
2022-08-05T19:26:04.692Z,102379.47
2022-08-05T19:28:36.319Z,102383.69
2022-08-05T19:31:06.035Z,102394.47
2022-08-05T19:33:38.089Z,102388.94
2022-08-05T19:36:09.266Z,102394.34
2022-08-05T19:38:37.139Z,102396.63
2022-08-05T19:41:07.271Z,102394.72
2022-08-05T19:44:04.070Z,102403.28
2022-08-05T19:46:31.624Z,102398.88
2022-08-05T19:49:01.198Z,102406.28
2022-08-05T19:52:08.948Z,102410.09
2022-08-05T19:54:29.518Z,102415.59
2022-08-05T19:57:02.411Z,102408.81
2022-08-05T19:59:55.786Z,102415.06
2022-08-05T20:02:32.200Z,102423.59
2022-08-05T20:05:00.380Z,102428.16
2022-08-05T20:07:47.437Z,102429.66
2022-08-05T20:10:17.090Z,102433.38
2022-08-05T20:12:47.777Z,102439.63
2022-08-05T20:15:48.927Z,102438.22
2022-08-05T20:18:10.922Z,102435.19
2022-08-05T20:20:56.757Z,102443.69
2022-08-05T20:23:40.362Z,102448.81
2022-08-05T20:26:15.935Z,102450.56
2022-08-05T20:28:45.616Z,102450.31
2022-08-05T20:31:13.846Z,102454.59
2022-08-05T20:33:46.100Z,102455.19
2022-08-05T20:36:16.187Z,102460.25
2022-08-05T20:38:53.357Z,102464.22
2022-08-05T20:41:27.066Z,102470.13
2022-08-05T20:44:18.978Z,102467.41
2022-08-05T20:46:59.715Z,102459.78
2022-08-05T20:49:37.811Z,102469.38
2022-08-05T20:52:08.434Z,102469.16
2022-08-05T20:54:43.066Z,102473.09
2022-08-05T20:57:24.620Z,102478.19
2022-08-05T21:00:41.157Z,102472.84
2022-08-05T21:03:08.022Z,102477.66
2022-08-05T21:05:53.582Z,102477.91
2022-08-05T21:08:32.966Z,102479.03
2022-08-05T21:11:12.562Z,102475.38
2022-08-05T21:13:55.747Z,102483.00
2022-08-05T21:16:29.525Z,102488.38
2022-08-05T21:19:00.183Z,102485.84
2022-08-05T21:21:39.131Z,102490.94
2022-08-05T21:24:09.865Z,102485.94
2022-08-05T21:26:46.074Z,102489.34
2022-08-05T21:29:18.414Z,102499.22
2022-08-05T21:31:46.171Z,102492.22
2022-08-05T21:34:15.757Z,102500.66
2022-08-05T21:36:46.550Z,102502.94
2022-08-05T21:39:26.833Z,102499.03
2022-08-05T21:42:01.189Z,102508.06
2022-08-05T21:44:29.946Z,102498.25
2022-08-05T21:46:58.263Z,102501.38
2022-08-05T21:49:48.143Z,102497.16
2022-08-05T21:52:28.080Z,102502.84
2022-08-05T21:54:56.848Z,102500.63
2022-08-05T21:57:32.688Z,102495.28
2022-08-05T22:00:05.958Z,102500.91
2022-08-05T22:02:41.632Z,102503.72
2022-08-05T22:05:11.105Z,102496.41
2022-08-05T22:07:58.938Z,102495.56
2022-08-05T22:10:27.792Z,102505.44
2022-08-05T22:12:57.187Z,102500.66
2022-08-05T22:15:56.524Z,102513.91
2022-08-05T22:18:14.351Z,102510.56
2022-08-05T22:20:44.134Z,102513.38
2022-08-05T22:24:02.337Z,102513.66
2022-08-05T22:26:36.360Z,102511.72
2022-08-05T22:29:04.423Z,102514.28
2022-08-05T22:31:44.755Z,102509.78
2022-08-05T22:34:25.521Z,102514.03
2022-08-05T22:36:56.837Z,102515.16
2022-08-05T22:39:33.063Z,102519.66
2022-08-05T22:42:08.900Z,102514.59
2022-08-05T22:44:41.001Z,102516.28
2022-08-05T22:47:14.870Z,102522.75
2022-08-05T22:50:20.932Z,102524.72
2022-08-05T22:52:45.655Z,102529.78
2022-08-05T22:55:19.298Z,102536.25
2022-08-05T22:57:49.454Z,102532.91
2022-08-05T23:00:21.184Z,102537.69
2022-08-05T23:02:49.856Z,102539.13
2022-08-05T23:05:19.007Z,102542.22
2022-08-05T23:07:50.590Z,102551.81
2022-08-05T23:10:20.966Z,102550.16
2022-08-05T23:12:54.669Z,102544.81
2022-08-05T23:15:27.023Z,102540.59
2022-08-05T23:18:00.923Z,102552.16
2022-08-05T23:20:31.209Z,102556.94
2022-08-05T23:23:00.401Z,102549.63
2022-08-05T23:25:50.963Z,102556.38
2022-08-05T23:28:20.539Z,102566.25
2022-08-05T23:30:54.019Z,102558.66
2022-08-05T23:33:26.422Z,102555.00
2022-08-05T23:36:13.728Z,102556.41
2022-08-05T23:38:43.072Z,102572.16
2022-08-05T23:41:13.023Z,102565.41
2022-08-05T23:44:03.182Z,102564.28
2022-08-05T23:46:29.710Z,102569.66
2022-08-05T23:49:00.568Z,102560.66
2022-08-05T23:51:52.398Z,102572.50
2022-08-05T23:54:25.161Z,102563.22
2022-08-05T23:57:03.863Z,102560.72
